Terminal Aerodrome Forecast
Issued by NWS

Home | Current Version | Previous Version | Text Only | Print | Product List | Glossary On
Versions: 1 2 3 4 5 6 7 8 9 10 11 12 13 14 15 16 17 18 19 20 21 22 23 24 25 26 27 28 29 30
283
FTAK31 PANC 081140
TAFADU
TAF
PADU 081140Z 0812/0912 33015G25KT P6SM SCT015 OVC030
     FM081900 34008KT P6SM SCT025 BKN035
     FM090900 32010G18KT 5SM -SHSN BKN025
      AMD LTD TO CLD VIS AND WX TIL 081600=

USA.gov is the U.S. government's official web portal to all federal, state and local government web resources and services.